Time;durP1;ratioP1;P1;durP2;ratioP2;P2;SDS_P1;SDS_P2;PMS_P1;PMS_P2;Temp;Humidity;BMP_temperature;BMP_pressure;BME280_temperature;BME280_humidity;BME280_pressure;Samples;Min_cycle;Max_cycle;Signal;HPM_P1;HPM_P2
2023/04/15 00:00:11;;;;;;;30.20;22.57;;;;;;;;;;5072495;28;20450;-56
2023/04/15 00:02:38;;;;;;;29.60;23.30;;;;;;;;;;5072375;28;20483;-57
2023/04/15 00:05:05;;;;;;;28.07;21.23;;;;;;;;;;5072398;28;20456;-57
2023/04/15 00:07:33;;;;;;;30.30;22.83;;;;;;;;;;5072270;28;20448;-57
2023/04/15 00:10:01;;;;;;;28.50;22.73;;;;;;;;;;5072510;28;20547;-57
2023/04/15 00:12:28;;;;;;;29.13;23.03;;;;;;;;;;5072510;28;20543;-56
2023/04/15 00:14:56;;;;;;;30.87;23.10;;;;;;;;;;5072409;28;20452;-57
2023/04/15 00:17:22;;;;;;;30.20;23.33;;;;;;;;;;5072363;28;20448;-56
2023/04/15 00:19:49;;;;;;;29.60;22.30;;;;;;;;;;5074713;28;20821;-57
2023/04/15 00:22:17;;;;;;;30.53;23.90;;;;;;;;;;5075840;28;20904;-57
2023/04/15 00:24:45;;;;;;;33.97;24.30;;;;;;;;;;5076026;28;20455;-57
2023/04/15 00:27:12;;;;;;;34.30;24.33;;;;;;;;;;5075953;28;20448;-56
2023/04/15 00:29:39;;;;;;;32.33;25.27;;;;;;;;;;5075910;28;20451;-58
2023/04/15 00:32:06;;;;;;;33.80;26.57;;;;;;;;;;5075751;28;20538;-57
2023/04/15 00:34:33;;;;;;;29.77;23.80;;;;;;;;;;5075608;28;20900;-57
2023/04/15 00:37:00;;;;;;;32.00;23.90;;;;;;;;;;5075556;28;20474;-58
2023/04/15 00:39:27;;;;;;;32.00;24.73;;;;;;;;;;5075678;28;20448;-58
2023/04/15 00:41:56;;;;;;;35.40;24.93;;;;;;;;;;5075592;28;20494;-58
2023/04/15 00:44:23;;;;;;;33.33;26.20;;;;;;;;;;5075362;28;20480;-57
2023/04/15 00:46:51;;;;;;;32.10;25.30;;;;;;;;;;5075444;28;20454;-57
2023/04/15 00:49:18;;;;;;;30.40;23.97;;;;;;;;;;5075311;28;20498;-57
2023/04/15 00:51:46;;;;;;;30.60;24.20;;;;;;;;;;5075538;28;20443;-57
2023/04/15 00:54:13;;;;;;;31.87;23.63;;;;;;;;;;5075457;28;20444;-57
2023/04/15 00:56:40;;;;;;;31.00;24.57;;;;;;;;;;5075320;28;20446;-57
2023/04/15 00:59:09;;;;;;;32.80;24.63;;;;;;;;;;5075285;28;20444;-58
2023/04/15 01:01:37;;;;;;;33.43;25.80;;;;;;;;;;5074957;28;20996;-58
2023/04/15 01:04:04;;;;;;;30.60;24.00;;;;;;;;;;5075054;28;20447;-57
2023/04/15 01:06:31;;;;;;;31.50;24.87;;;;;;;;;;5075298;28;20444;-57
2023/04/15 01:08:58;;;;;;;33.37;23.53;;;;;;;;;;5075258;28;20450;-56
2023/04/15 01:11:25;;;;;;;30.90;24.47;;;;;;;;;;5075039;28;20538;-57
2023/04/15 01:13:53;;;;;;;34.10;26.30;;;;;;;;;;5075017;28;20566;-56
2023/04/15 01:16:21;;;;;;;37.20;27.47;;;;;;;;;;5074882;28;20534;-55
2023/04/15 01:18:48;;;;;;;33.20;25.40;;;;;;;;;;5074935;28;20543;-56
2023/04/15 01:21:15;;;;;;;35.00;25.23;;;;;;;;;;5074931;28;20531;-56
2023/04/15 01:23:42;;;;;;;36.23;26.00;;;;;;;;;;5074735;28;20479;-57
2023/04/15 01:26:10;;;;;;;38.00;27.17;;;;;;;;;;5074732;28;20807;-57
2023/04/15 01:28:38;;;;;;;34.37;25.47;;;;;;;;;;5074694;28;20452;-56
2023/04/15 01:31:08;;;;;;;32.00;25.27;;;;;;;;;;5073793;28;20454;-57
2023/04/15 01:33:35;;;;;;;33.40;26.53;;;;;;;;;;5074675;28;20555;-56
2023/04/15 01:36:02;;;;;;;36.27;25.13;;;;;;;;;;5074475;28;20998;-57
2023/04/15 01:38:30;;;;;;;37.50;25.60;;;;;;;;;;5074505;28;20447;-56
2023/04/15 01:40:58;;;;;;;34.97;25.60;;;;;;;;;;5074374;28;20450;-57
2023/04/15 01:43:26;;;;;;;34.60;25.07;;;;;;;;;;5073988;28;20488;-55
2023/04/15 01:45:53;;;;;;;32.90;24.67;;;;;;;;;;5074494;28;20440;-56
2023/04/15 01:48:21;;;;;;;36.93;24.60;;;;;;;;;;5074303;28;20551;-57
2023/04/15 01:50:47;;;;;;;32.63;24.50;;;;;;;;;;5074306;28;20511;-55
2023/04/15 01:53:15;;;;;;;36.83;25.83;;;;;;;;;;5074189;28;20454;-57
2023/04/15 01:55:42;;;;;;;32.83;25.70;;;;;;;;;;5074080;28;20443;-57
2023/04/15 01:58:09;;;;;;;34.47;24.87;;;;;;;;;;5073925;28;20448;-57
2023/04/15 02:00:37;;;;;;;30.23;24.00;;;;;;;;;;5074135;28;20939;-58
2023/04/15 02:03:05;;;;;;;34.43;25.80;;;;;;;;;;5073961;28;20484;-55
2023/04/15 02:05:32;;;;;;;36.40;25.20;;;;;;;;;;5073981;28;20455;-57
2023/04/15 02:07:59;;;;;;;34.23;24.60;;;;;;;;;;5073900;28;20448;-55
2023/04/15 02:10:27;;;;;;;34.40;23.73;;;;;;;;;;5073781;28;20478;-57
2023/04/15 02:12:54;;;;;;;31.00;24.00;;;;;;;;;;5073943;28;20452;-57
2023/04/15 02:15:21;;;;;;;29.30;23.37;;;;;;;;;;5073624;28;20534;-57
2023/04/15 02:17:51;;;;;;;33.27;25.13;;;;;;;;;;5073773;28;20448;-57
2023/04/15 02:20:19;;;;;;;34.40;25.07;;;;;;;;;;5073974;28;20444;-57
2023/04/15 02:22:47;;;;;;;35.67;24.47;;;;;;;;;;5073921;28;20472;-57
2023/04/15 02:25:15;;;;;;;33.23;23.87;;;;;;;;;;5073289;28;20447;-56
2023/04/15 02:27:42;;;;;;;32.87;23.50;;;;;;;;;;5073586;28;20451;-57
2023/04/15 02:30:09;;;;;;;34.67;25.43;;;;;;;;;;5073546;28;20476;-56
2023/04/15 02:32:37;;;;;;;31.47;24.50;;;;;;;;;;5073434;28;20454;-56
2023/04/15 02:35:06;;;;;;;32.80;24.77;;;;;;;;;;5073355;28;20452;-58
2023/04/15 02:37:35;;;;;;;33.63;23.90;;;;;;;;;;5073308;28;20448;-56
2023/04/15 02:40:03;;;;;;;31.33;23.90;;;;;;;;;;5073483;28;20444;-57
2023/04/15 02:42:31;;;;;;;31.87;23.70;;;;;;;;;;5072378;28;20480;-55
2023/04/15 02:44:58;;;;;;;29.50;21.93;;;;;;;;;;5073054;28;20478;-57
2023/04/15 02:47:25;;;;;;;31.90;22.80;;;;;;;;;;5073298;28;20538;-56
2023/04/15 02:49:52;;;;;;;29.80;22.50;;;;;;;;;;5073191;28;20447;-57
2023/04/15 02:52:20;;;;;;;30.83;23.30;;;;;;;;;;5073017;28;20451;-58
2023/04/15 02:54:47;;;;;;;26.67;23.33;;;;;;;;;;5073368;28;20448;-59
2023/04/15 02:57:14;;;;;;;31.83;23.73;;;;;;;;;;5073218;28;20792;-57
2023/04/15 02:59:41;;;;;;;28.07;21.97;;;;;;;;;;5073129;28;20450;-58
2023/04/15 03:02:08;;;;;;;25.70;21.10;;;;;;;;;;5073042;28;20486;-57
2023/04/15 03:04:35;;;;;;;31.07;22.80;;;;;;;;;;5072983;28;20483;-59
2023/04/15 03:07:02;;;;;;;29.93;21.33;;;;;;;;;;5072870;28;20443;-57
2023/04/15 03:09:31;;;;;;;33.10;22.57;;;;;;;;;;5073079;28;20454;-56
2023/04/15 03:11:58;;;;;;;28.17;21.20;;;;;;;;;;5073050;28;20479;-56
2023/04/15 03:14:24;;;;;;;29.47;22.80;;;;;;;;;;5072941;28;20543;-54
2023/04/15 03:16:51;;;;;;;27.17;20.97;;;;;;;;;;5072883;28;20444;-57
2023/04/15 03:19:18;;;;;;;28.53;21.47;;;;;;;;;;5072836;28;20443;-55
2023/04/15 03:21:45;;;;;;;27.60;20.20;;;;;;;;;;5073004;28;20491;-59
2023/04/15 03:24:12;;;;;;;24.33;20.40;;;;;;;;;;5072632;28;21010;-56
2023/04/15 03:26:40;;;;;;;27.93;20.13;;;;;;;;;;5072841;28;20444;-56
2023/04/15 03:29:07;;;;;;;25.73;19.30;;;;;;;;;;5072726;28;20447;-55
2023/04/15 03:31:34;;;;;;;26.30;20.27;;;;;;;;;;5072705;28;20872;-56
2023/04/15 03:34:01;;;;;;;25.00;20.57;;;;;;;;;;5072545;28;20490;-56
2023/04/15 03:36:30;;;;;;;25.93;21.07;;;;;;;;;;5072856;28;20605;-55
2023/04/15 03:38:57;;;;;;;28.30;20.90;;;;;;;;;;5072763;28;20459;-56
2023/04/15 03:41:24;;;;;;;28.90;20.47;;;;;;;;;;5072667;28;20451;-57
2023/04/15 03:43:52;;;;;;;29.30;21.97;;;;;;;;;;5072402;28;20524;-56
2023/04/15 03:46:19;;;;;;;30.50;21.40;;;;;;;;;;5072465;28;20543;-56
2023/04/15 03:48:46;;;;;;;32.13;21.27;;;;;;;;;;5072713;28;20509;-57
2023/04/15 03:51:13;;;;;;;23.30;18.77;;;;;;;;;;5072670;28;20456;-55
2023/04/15 03:53:40;;;;;;;25.20;20.10;;;;;;;;;;5073330;28;20773;-56
2023/04/15 03:56:07;;;;;;;30.20;20.50;;;;;;;;;;5076510;28;20444;-56
2023/04/15 03:58:34;;;;;;;27.73;18.87;;;;;;;;;;5076288;28;20530;-55
2023/04/15 04:01:02;;;;;;;24.17;19.13;;;;;;;;;;5076190;28;20444;-56
2023/04/15 04:03:29;;;;;;;23.57;18.83;;;;;;;;;;5076366;28;20487;-57
2023/04/15 04:05:56;;;;;;;28.40;20.13;;;;;;;;;;5076408;28;20475;-55
2023/04/15 04:08:23;;;;;;;22.67;19.00;;;;;;;;;;5076253;28;20448;-57
2023/04/15 04:10:50;;;;;;;21.37;19.07;;;;;;;;;;5076154;28;20452;-57
2023/04/15 04:13:17;;;;;;;25.50;20.10;;;;;;;;;;5076130;28;20544;-54
2023/04/15 04:15:44;;;;;;;22.53;17.67;;;;;;;;;;5075935;28;20961;-56
2023/04/15 04:18:12;;;;;;;19.73;17.13;;;;;;;;;;5076092;28;20536;-57
2023/04/15 04:20:40;;;;;;;24.83;19.37;;;;;;;;;;5076071;28;20473;-55
2023/04/15 04:23:07;;;;;;;20.70;17.53;;;;;;;;;;5075824;28;20483;-55
2023/04/15 04:25:34;;;;;;;22.77;18.87;;;;;;;;;;5075819;28;20876;-56
2023/04/15 04:28:00;;;;;;;26.47;18.07;;;;;;;;;;5075668;28;20539;-55
2023/04/15 04:30:27;;;;;;;20.67;16.97;;;;;;;;;;5075770;28;20444;-56
2023/04/15 04:32:54;;;;;;;24.10;18.83;;;;;;;;;;5075706;28;20484;-56
2023/04/15 04:35:23;;;;;;;20.43;17.30;;;;;;;;;;5075809;28;20446;-56
2023/04/15 04:37:51;;;;;;;20.07;17.57;;;;;;;;;;5075673;28;20443;-56
2023/04/15 04:40:18;;;;;;;21.20;17.43;;;;;;;;;;5075576;28;20450;-55
2023/04/15 04:42:45;;;;;;;22.80;16.47;;;;;;;;;;5075099;28;20458;-56
2023/04/15 04:45:12;;;;;;;21.30;16.80;;;;;;;;;;5075686;28;20815;-56
2023/04/15 04:47:39;;;;;;;19.97;17.13;;;;;;;;;;5075617;28;20844;-57
2023/04/15 04:50:07;;;;;;;19.53;16.80;;;;;;;;;;5075415;28;20454;-54
2023/04/15 04:52:36;;;;;;;21.40;17.07;;;;;;;;;;5075331;28;20451;-53
2023/04/15 04:55:03;;;;;;;19.67;15.83;;;;;;;;;;5075286;28;20501;-55
2023/04/15 04:57:30;;;;;;;19.00;16.87;;;;;;;;;;5075438;28;20538;-55
2023/04/15 04:59:57;;;;;;;20.80;17.10;;;;;;;;;;5075446;28;20970;-55
2023/04/15 05:02:25;;;;;;;18.23;15.63;;;;;;;;;;5075322;28;20452;-56
2023/04/15 05:04:54;;;;;;;21.03;15.80;;;;;;;;;;5074563;28;20503;-55
2023/04/15 05:07:21;;;;;;;17.13;14.60;;;;;;;;;;5074668;28;20448;-56
2023/04/15 05:09:49;;;;;;;18.00;16.03;;;;;;;;;;5074948;28;20493;-55
2023/04/15 05:12:17;;;;;;;17.57;15.70;;;;;;;;;;5075184;28;20451;-57
2023/04/15 05:14:45;;;;;;;16.30;14.50;;;;;;;;;;5075071;28;20526;-55
2023/04/15 05:17:12;;;;;;;22.00;15.30;;;;;;;;;;5075000;28;20443;-57
2023/04/15 05:19:40;;;;;;;22.43;16.83;;;;;;;;;;5074862;28;20458;-55
2023/04/15 05:22:07;;;;;;;21.17;14.97;;;;;;;;;;5074809;28;20486;-56
2023/04/15 05:24:33;;;;;;;21.37;15.20;;;;;;;;;;5074889;28;20479;-55
2023/04/15 05:27:02;;;;;;;14.50;12.53;;;;;;;;;;5074857;28;20448;-52
2023/04/15 05:29:29;;;;;;;14.70;13.20;;;;;;;;;;5074753;28;20459;-55
2023/04/15 05:31:56;;;;;;;15.23;13.73;;;;;;;;;;5074641;28;20458;-55
2023/04/15 05:34:23;;;;;;;19.03;15.90;;;;;;;;;;5074569;28;20464;-57
2023/04/15 05:36:51;;;;;;;15.93;13.70;;;;;;;;;;5074448;28;20539;-56
2023/04/15 05:39:18;;;;;;;14.20;12.70;;;;;;;;;;5074781;28;20515;-56
2023/04/15 05:41:45;;;;;;;16.23;13.53;;;;;;;;;;5074477;28;20444;-54
2023/04/15 05:44:13;;;;;;;14.40;12.77;;;;;;;;;;5074330;28;20812;-54
2023/04/15 05:46:41;;;;;;;15.10;13.60;;;;;;;;;;5074574;28;20543;-54
2023/04/15 05:49:08;;;;;;;16.07;14.40;;;;;;;;;;5074196;28;20452;-57
2023/04/15 05:51:35;;;;;;;15.80;13.97;;;;;;;;;;5074080;28;20543;-53
2023/04/15 05:54:02;;;;;;;16.17;14.10;;;;;;;;;;5074168;28;20502;-53
2023/04/15 05:56:29;;;;;;;17.73;13.90;;;;;;;;;;5074037;28;20531;-55
2023/04/15 05:58:56;;;;;;;14.90;13.30;;;;;;;;;;5074161;28;20486;-56
2023/04/15 06:01:24;;;;;;;15.07;13.10;;;;;;;;;;5073898;28;20450;-56
2023/04/15 06:03:51;;;;;;;14.70;13.27;;;;;;;;;;5073880;28;20537;-54
2023/04/15 06:06:19;;;;;;;16.40;14.70;;;;;;;;;;5074178;28;20927;-54
2023/04/15 06:08:46;;;;;;;14.77;13.37;;;;;;;;;;5074124;28;20535;-53
2023/04/15 06:11:13;;;;;;;14.97;13.37;;;;;;;;;;5073730;28;21021;-53
2023/04/15 06:13:40;;;;;;;14.67;13.10;;;;;;;;;;5073706;28;20843;-55
2023/04/15 06:16:07;;;;;;;20.07;14.67;;;;;;;;;;5073610;28;20457;-55
2023/04/15 06:18:36;;;;;;;16.03;14.07;;;;;;;;;;5073393;28;20502;-55
2023/04/15 06:21:03;;;;;;;15.70;14.10;;;;;;;;;;5074102;28;20444;-55
2023/04/15 06:23:30;;;;;;;15.30;13.80;;;;;;;;;;5073628;28;20476;-56
2023/04/15 06:25:57;;;;;;;16.33;14.63;;;;;;;;;;5073831;28;20486;-55
2023/04/15 06:28:24;;;;;;;15.83;14.17;;;;;;;;;;5073506;28;20471;-55
2023/04/15 06:30:51;;;;;;;15.87;14.23;;;;;;;;;;5073351;28;20535;-55
2023/04/15 06:33:18;;;;;;;18.43;13.80;;;;;;;;;;5073528;28;20448;-55
2023/04/15 06:35:48;;;;;;;15.93;13.60;;;;;;;;;;5073495;28;20444;-56
2023/04/15 06:38:15;;;;;;;15.20;13.60;;;;;;;;;;5073483;28;20448;-54
2023/04/15 06:40:42;;;;;;;14.13;12.57;;;;;;;;;;5073255;28;20492;-55
2023/04/15 06:43:09;;;;;;;14.70;13.20;;;;;;;;;;5073057;28;20830;-57
2023/04/15 06:45:36;;;;;;;12.90;11.60;;;;;;;;;;5073020;28;20571;-55
2023/04/15 06:48:03;;;;;;;13.10;11.83;;;;;;;;;;5073249;28;20539;-56
2023/04/15 06:50:30;;;;;;;13.80;12.40;;;;;;;;;;5073337;28;20511;-55
2023/04/15 06:52:58;;;;;;;15.00;13.47;;;;;;;;;;5072997;28;20641;-55
2023/04/15 06:55:26;;;;;;;14.20;12.80;;;;;;;;;;5072949;28;20447;-57
2023/04/15 06:57:53;;;;;;;14.23;12.27;;;;;;;;;;5072883;28;20479;-57
2023/04/15 07:00:20;;;;;;;13.03;11.83;;;;;;;;;;5072945;28;20890;-56
2023/04/15 07:02:47;;;;;;;17.00;12.80;;;;;;;;;;5073011;28;20443;-57
2023/04/15 07:05:14;;;;;;;12.60;11.40;;;;;;;;;;5072864;28;20523;-57
2023/04/15 07:07:42;;;;;;;14.90;13.20;;;;;;;;;;5073005;28;20451;-57
2023/04/15 07:10:10;;;;;;;13.07;11.70;;;;;;;;;;5072960;28;20448;-55
2023/04/15 07:12:37;;;;;;;14.13;12.73;;;;;;;;;;5072785;28;20532;-56
2023/04/15 07:15:05;;;;;;;13.60;11.50;;;;;;;;;;5072971;28;20487;-58
2023/04/15 07:17:33;;;;;;;15.33;12.47;;;;;;;;;;5072947;28;20854;-57
2023/04/15 07:20:00;;;;;;;15.70;14.10;;;;;;;;;;5072871;28;20440;-57
2023/04/15 07:22:27;;;;;;;14.33;12.83;;;;;;;;;;5072850;28;20493;-56
2023/04/15 07:24:53;;;;;;;16.07;14.20;;;;;;;;;;5072924;28;20479;-57
2023/04/15 07:27:22;;;;;;;15.50;13.80;;;;;;;;;;5072648;28;20452;-55
2023/04/15 07:29:50;;;;;;;14.80;13.40;;;;;;;;;;5075584;28;20551;-58
2023/04/15 07:32:17;;;;;;;15.30;13.70;;;;;;;;;;5076948;28;20450;-57
2023/04/15 07:34:44;;;;;;;19.03;14.50;;;;;;;;;;5076890;28;20447;-57
2023/04/15 07:37:11;;;;;;;16.10;13.83;;;;;;;;;;5077025;28;20443;-55
2023/04/15 07:39:38;;;;;;;16.43;14.70;;;;;;;;;;5077052;28;20535;-57
2023/04/15 07:42:05;;;;;;;16.30;14.60;;;;;;;;;;5076830;28;20452;-56
2023/04/15 07:44:34;;;;;;;16.57;14.97;;;;;;;;;;5076628;28;20498;-56
2023/04/15 07:47:01;;;;;;;17.53;15.60;;;;;;;;;;5076694;28;20825;-54
2023/04/15 07:49:28;;;;;;;15.70;14.10;;;;;;;;;;5076593;28;20460;-57
2023/04/15 07:51:56;;;;;;;16.13;14.47;;;;;;;;;;5076814;28;20810;-58
2023/04/15 07:54:23;;;;;;;21.40;15.70;;;;;;;;;;5076321;28;20451;-54
2023/04/15 07:56:50;;;;;;;16.83;15.13;;;;;;;;;;5076351;28;20957;-57
2023/04/15 07:59:18;;;;;;;16.93;15.13;;;;;;;;;;5076382;28;20458;-57
2023/04/15 08:01:47;;;;;;;15.67;14.27;;;;;;;;;;5076093;28;20478;-56
2023/04/15 08:04:14;;;;;;;15.37;13.77;;;;;;;;;;5075917;28;21001;-58
2023/04/15 08:06:41;;;;;;;16.83;15.10;;;;;;;;;;5075953;28;20488;-57
2023/04/15 08:09:08;;;;;;;16.53;14.83;;;;;;;;;;5075991;28;20450;-57
2023/04/15 08:11:35;;;;;;;16.07;14.50;;;;;;;;;;5075957;28;20978;-58
2023/04/15 08:14:02;;;;;;;15.97;14.53;;;;;;;;;;5076107;28;20609;-57
2023/04/15 08:16:29;;;;;;;15.97;14.30;;;;;;;;;;5075951;28;20813;-58
2023/04/15 08:18:57;;;;;;;15.47;13.97;;;;;;;;;;5076074;28;20447;-57
2023/04/15 08:21:24;;;;;;;16.03;14.33;;;;;;;;;;5075731;28;20483;-57
2023/04/15 08:23:53;;;;;;;15.50;13.77;;;;;;;;;;5075900;28;20506;-57
2023/04/15 08:26:20;;;;;;;16.07;14.57;;;;;;;;;;5075899;28;20861;-57
2023/04/15 08:28:47;;;;;;;16.20;14.50;;;;;;;;;;5075749;28;20448;-56
2023/04/15 08:31:15;;;;;;;15.30;13.83;;;;;;;;;;5076054;28;20458;-56
2023/04/15 08:33:42;;;;;;;15.57;14.10;;;;;;;;;;5075600;28;20454;-57
2023/04/15 08:36:10;;;;;;;16.53;14.83;;;;;;;;;;5075417;28;20550;-57
2023/04/15 08:38:37;;;;;;;15.30;13.70;;;;;;;;;;5075687;28;20448;-56
2023/04/15 08:41:08;;;;;;;16.53;14.93;;;;;;;;;;5075340;28;20458;-56
2023/04/15 08:43:36;;;;;;;18.07;16.10;;;;;;;;;;5075579;28;20479;-56
2023/04/15 08:46:05;;;;;;;17.07;15.37;;;;;;;;;;5075507;28;20881;-57
2023/04/15 08:48:33;;;;;;;18.30;15.90;;;;;;;;;;5075328;28;20864;-55
2023/04/15 08:51:01;;;;;;;16.80;15.10;;;;;;;;;;5075459;28;20507;-59
2023/04/15 08:53:31;;;;;;;15.07;13.67;;;;;;;;;;5075446;28;20479;-57
2023/04/15 08:56:00;;;;;;;16.10;14.47;;;;;;;;;;5075337;28;20459;-54
2023/04/15 08:58:27;;;;;;;15.77;14.27;;;;;;;;;;5075236;28;20799;-56
2023/04/15 09:00:54;;;;;;;16.37;14.70;;;;;;;;;;5075281;28;20543;-57
2023/04/15 09:03:22;;;;;;;16.53;15.00;;;;;;;;;;5075257;28;20526;-56
2023/04/15 09:05:50;;;;;;;15.23;13.83;;;;;;;;;;5074696;28;20490;-56
2023/04/15 09:08:17;;;;;;;16.40;14.90;;;;;;;;;;5075181;28;20454;-55
2023/04/15 09:10:46;;;;;;;15.37;13.83;;;;;;;;;;5074936;28;20502;-56
2023/04/15 09:13:12;;;;;;;15.10;13.50;;;;;;;;;;5074902;28;20882;-53
2023/04/15 09:15:39;;;;;;;15.77;14.30;;;;;;;;;;5074820;28;21026;-57
2023/04/15 09:18:06;;;;;;;15.43;14.03;;;;;;;;;;5075125;28;20452;-56
2023/04/15 09:20:40;;;;;;;16.60;15.07;;;;;;;;;;5074724;28;20447;-57
2023/04/15 09:23:13;;;;;;;20.53;14.40;;;;;;;;;;5074537;28;20954;-57
2023/04/15 09:25:41;;;;;;;15.57;13.80;;;;;;;;;;5074269;28;21004;-57
2023/04/15 09:28:10;;;;;;;14.77;13.47;;;;;;;;;;5074215;28;20452;-57
2023/04/15 09:30:37;;;;;;;14.83;13.43;;;;;;;;;;5074606;28;20858;-58
2023/04/15 09:33:06;;;;;;;15.80;14.20;;;;;;;;;;5074553;28;20818;-58
2023/04/15 09:35:34;;;;;;;16.43;14.83;;;;;;;;;;5074632;28;20456;-57
2023/04/15 09:38:03;;;;;;;16.37;14.87;;;;;;;;;;5074429;28;20447;-56
2023/04/15 09:40:33;;;;;;;16.30;14.80;;;;;;;;;;5074272;28;20455;-57
2023/04/15 09:43:01;;;;;;;15.50;14.10;;;;;;;;;;5074354;28;20565;-55
2023/04/15 09:45:30;;;;;;;14.80;13.43;;;;;;;;;;5074368;28;20488;-56
2023/04/15 09:47:57;;;;;;;14.67;13.33;;;;;;;;;;5074327;28;20534;-57
2023/04/15 09:50:27;;;;;;;15.80;14.30;;;;;;;;;;5074275;28;20511;-57
2023/04/15 09:52:54;;;;;;;15.67;14.07;;;;;;;;;;5073544;28;20947;-58
2023/04/15 09:55:21;;;;;;;15.40;13.90;;;;;;;;;;5074280;28;20854;-57
2023/04/15 09:57:48;;;;;;;15.30;13.80;;;;;;;;;;5074195;28;20498;-57
2023/04/15 10:00:15;;;;;;;14.57;13.17;;;;;;;;;;5074069;28;20924;-56
2023/04/15 10:02:44;;;;;;;14.80;13.40;;;;;;;;;;5074061;28;20530;-57
2023/04/15 10:05:11;;;;;;;13.87;12.67;;;;;;;;;;5073784;28;20838;-57
2023/04/15 10:07:41;;;;;;;16.27;14.77;;;;;;;;;;5073728;28;20454;-58
2023/04/15 10:10:09;;;;;;;15.17;13.87;;;;;;;;;;5073951;28;20452;-57
2023/04/15 10:12:37;;;;;;;15.83;14.23;;;;;;;;;;5073985;28;20473;-55
2023/04/15 10:15:05;;;;;;;14.27;12.87;;;;;;;;;;5073822;28;20539;-56
2023/04/15 10:17:34;;;;;;;14.77;13.40;;;;;;;;;;5073683;28;20448;-57
2023/04/15 10:20:03;;;;;;;16.20;14.63;;;;;;;;;;5073410;28;20452;-57
2023/04/15 10:22:30;;;;;;;14.23;12.90;;;;;;;;;;5073443;28;20463;-57
2023/04/15 10:24:58;;;;;;;13.60;12.33;;;;;;;;;;5073619;28;20801;-56
2023/04/15 10:27:25;;;;;;;15.80;14.20;;;;;;;;;;5073638;28;20812;-57
2023/04/15 10:29:52;;;;;;;12.97;11.67;;;;;;;;;;5073304;28;20959;-56
2023/04/15 10:32:20;;;;;;;13.10;12.00;;;;;;;;;;5073354;28;20454;-57
2023/04/15 10:34:49;;;;;;;14.10;12.70;;;;;;;;;;5073207;28;20479;-57
2023/04/15 10:37:22;;;;;;;13.37;12.17;;;;;;;;;;5073469;28;20497;-58
2023/04/15 10:39:49;;;;;;;12.73;11.60;;;;;;;;;;5073186;28;20459;-56
2023/04/15 10:42:17;;;;;;;15.00;13.60;;;;;;;;;;5073207;28;20459;-58
2023/04/15 10:44:46;;;;;;;13.03;11.77;;;;;;;;;;5072971;28;20564;-55
2023/04/15 10:47:13;;;;;;;14.40;13.00;;;;;;;;;;5073035;28;20452;-57
2023/04/15 10:49:45;;;;;;;14.50;12.87;;;;;;;;;;5073285;28;20494;-54
2023/04/15 10:52:12;;;;;;;13.60;12.37;;;;;;;;;;5073162;28;20483;-57
2023/04/15 10:54:40;;;;;;;14.03;12.73;;;;;;;;;;5073216;28;20455;-56
2023/04/15 10:57:15;;;;;;;14.73;13.33;;;;;;;;;;5072998;28;20539;-55
2023/04/15 11:00:05;;;;;;;15.33;13.80;;;;;;;;;;5072833;28;20478;-58
2023/04/15 11:02:45;;;;;;;16.03;14.53;;;;;;;;;;5069003;28;20452;-56
2023/04/15 11:05:13;;;;;;;14.30;13.00;;;;;;;;;;5072583;28;20499;-57
2023/04/15 11:07:42;;;;;;;15.10;13.60;;;;;;;;;;5072850;28;20452;-57
2023/04/15 11:10:27;;;;;;;13.63;12.33;;;;;;;;;;5072786;28;20455;-57
2023/04/15 11:12:58;;;;;;;14.40;13.03;;;;;;;;;;5073020;28;20850;-57
2023/04/15 11:15:29;;;;;;;13.90;12.70;;;;;;;;;;5072839;28;20543;-56
2023/04/15 11:17:57;;;;;;;14.73;13.27;;;;;;;;;;5072848;28;20807;-58
2023/04/15 11:20:24;;;;;;;13.00;11.90;;;;;;;;;;5072749;28;20448;-56
2023/04/15 11:22:51;;;;;;;14.07;12.60;;;;;;;;;;5072866;28;20619;-57
2023/04/15 11:25:24;;;;;;;13.27;12.00;;;;;;;;;;5072582;28;21002;-56
2023/04/15 11:27:53;;;;;;;13.97;12.70;;;;;;;;;;5072816;28;20815;-57
2023/04/15 11:30:22;;;;;;;13.80;12.50;;;;;;;;;;5072733;28;20444;-57
2023/04/15 11:32:49;;;;;;;16.93;15.20;;;;;;;;;;5072639;28;20543;-58
2023/04/15 11:35:17;;;;;;;14.00;12.70;;;;;;;;;;5072692;28;20450;-57
2023/04/15 11:37:44;;;;;;;11.90;10.90;;;;;;;;;;5072808;28;20879;-56
2023/04/15 11:40:11;;;;;;;12.10;11.10;;;;;;;;;;5072695;28;20814;-55
2023/04/15 11:42:38;;;;;;;12.47;11.37;;;;;;;;;;5072496;28;20519;-54
2023/04/15 11:45:09;;;;;;;11.77;10.83;;;;;;;;;;5072422;28;20806;-56
2023/04/15 11:47:37;;;;;;;12.67;11.47;;;;;;;;;;5072502;28;20831;-56
2023/04/15 11:50:17;;;;;;;11.60;10.60;;;;;;;;;;5072656;28;20450;-56
2023/04/15 11:52:53;;;;;;;13.87;12.57;;;;;;;;;;5072688;28;20455;-56
2023/04/15 11:55:20;;;;;;;12.60;11.40;;;;;;;;;;5072478;28;20462;-56
2023/04/15 11:57:47;;;;;;;12.90;11.80;;;;;;;;;;5072591;28;20815;-56
2023/04/15 12:00:16;;;;;;;12.17;11.10;;;;;;;;;;5072326;28;20444;-55
2023/04/15 12:02:45;;;;;;;11.50;10.50;;;;;;;;;;5072612;28;20531;-57
2023/04/15 12:05:12;;;;;;;13.03;11.87;;;;;;;;;;5072390;28;20448;-57
2023/04/15 12:07:57;;;;;;;12.07;11.07;;;;;;;;;;5072513;28;20474;-59
2023/04/15 12:10:25;;;;;;;11.47;10.57;;;;;;;;;;5072419;28;20541;-57
2023/04/15 12:12:52;;;;;;;12.73;11.60;;;;;;;;;;5072636;28;20459;-56
2023/04/15 12:15:22;;;;;;;11.80;10.80;;;;;;;;;;5074026;28;20454;-57
2023/04/15 12:17:54;;;;;;;11.27;10.27;;;;;;;;;;5075921;28;20450;-53
2023/04/15 12:20:22;;;;;;;12.23;11.03;;;;;;;;;;5075794;28;20957;-57
2023/04/15 12:22:49;;;;;;;11.77;10.67;;;;;;;;;;5075855;28;20471;-56
2023/04/15 12:25:16;;;;;;;11.03;10.03;;;;;;;;;;5075719;28;20531;-57
2023/04/15 12:27:51;;;;;;;11.23;10.23;;;;;;;;;;5076036;28;20454;-56
2023/04/15 12:30:18;;;;;;;10.60;9.70;;;;;;;;;;5075839;28;20451;-58
2023/04/15 12:32:46;;;;;;;12.00;10.97;;;;;;;;;;5075986;28;20542;-58
2023/04/15 12:35:15;;;;;;;11.77;10.67;;;;;;;;;;5075663;28;20474;-57
2023/04/15 12:37:42;;;;;;;11.60;10.60;;;;;;;;;;5075558;28;20534;-57
2023/04/15 12:40:09;;;;;;;11.00;10.00;;;;;;;;;;5075731;28;20440;-58
2023/04/15 12:42:36;;;;;;;11.57;10.47;;;;;;;;;;5075521;28;20820;-59
2023/04/15 12:45:03;;;;;;;11.97;10.93;;;;;;;;;;5075588;28;20450;-57
2023/04/15 12:47:30;;;;;;;11.70;10.70;;;;;;;;;;5075416;28;20575;-58
2023/04/15 12:49:57;;;;;;;12.10;11.00;;;;;;;;;;5075349;28;20809;-57
2023/04/15 12:52:25;;;;;;;12.23;11.13;;;;;;;;;;5075532;28;20447;-58
2023/04/15 12:54:53;;;;;;;11.33;10.30;;;;;;;;;;5075455;28;20538;-57
2023/04/15 12:57:20;;;;;;;12.07;11.07;;;;;;;;;;5075317;28;20479;-58
2023/04/15 12:59:47;;;;;;;10.30;9.47;;;;;;;;;;5075312;28;20484;-56
2023/04/15 13:02:14;;;;;;;11.07;10.20;;;;;;;;;;5075117;28;20447;-56
2023/04/15 13:04:41;;;;;;;11.50;10.50;;;;;;;;;;5075134;28;20444;-58
2023/04/15 13:07:08;;;;;;;11.83;9.77;;;;;;;;;;5075384;28;20484;-58
2023/04/15 13:09:37;;;;;;;11.87;10.77;;;;;;;;;;5075102;28;20448;-57
2023/04/15 13:12:04;;;;;;;11.00;10.00;;;;;;;;;;5075288;28;20449;-56
2023/04/15 13:14:31;;;;;;;9.80;9.00;;;;;;;;;;5074920;28;20476;-57
2023/04/15 13:16:58;;;;;;;10.70;9.70;;;;;;;;;;5074881;28;21042;-57
2023/04/15 13:19:25;;;;;;;10.27;9.37;;;;;;;;;;5074741;28;20448;-57
2023/04/15 13:21:52;;;;;;;11.60;10.60;;;;;;;;;;5074958;28;20458;-57
2023/04/15 13:24:19;;;;;;;10.20;9.30;;;;;;;;;;5074908;28;20506;-57
2023/04/15 13:26:47;;;;;;;12.03;10.80;;;;;;;;;;5073767;28;20489;-59
2023/04/15 13:29:14;;;;;;;11.37;10.37;;;;;;;;;;5074767;28;20479;-57
2023/04/15 13:31:41;;;;;;;11.40;10.50;;;;;;;;;;5074572;28;20451;-56
2023/04/15 13:34:08;;;;;;;11.90;10.80;;;;;;;;;;5074470;28;20535;-57
2023/04/15 13:36:35;;;;;;;11.73;10.73;;;;;;;;;;5074664;28;20538;-58
2023/04/15 13:39:04;;;;;;;10.10;9.30;;;;;;;;;;5074547;28;20456;-58
2023/04/15 13:41:31;;;;;;;12.07;11.00;;;;;;;;;;5074470;28;20501;-57
2023/04/15 13:43:59;;;;;;;10.90;9.90;;;;;;;;;;5074304;28;20486;-57
2023/04/15 13:46:26;;;;;;;11.20;10.30;;;;;;;;;;5074174;28;20483;-57
2023/04/15 13:48:53;;;;;;;10.50;9.70;;;;;;;;;;5074582;28;20606;-57
2023/04/15 13:51:20;;;;;;;10.57;9.67;;;;;;;;;;5074306;28;20875;-57
2023/04/15 13:53:47;;;;;;;11.30;10.30;;;;;;;;;;5074304;28;20484;-57
2023/04/15 13:56:14;;;;;;;11.20;10.20;;;;;;;;;;5074126;28;20483;-56
2023/04/15 13:58:41;;;;;;;11.07;10.17;;;;;;;;;;5074032;28;21000;-56
2023/04/15 14:01:10;;;;;;;10.43;9.63;;;;;;;;;;5073822;28;20483;-56
2023/04/15 14:03:37;;;;;;;11.43;10.47;;;;;;;;;;5074347;28;20455;-55
2023/04/15 14:06:04;;;;;;;11.03;10.13;;;;;;;;;;5073866;28;20478;-57
2023/04/15 14:08:31;;;;;;;11.33;9.90;;;;;;;;;;5073899;28;20448;-57
2023/04/15 14:10:58;;;;;;;10.53;9.63;;;;;;;;;;5074261;28;20443;-57
2023/04/15 14:13:25;;;;;;;11.00;10.10;;;;;;;;;;5073953;28;20450;-56
2023/04/15 14:15:52;;;;;;;11.47;10.47;;;;;;;;;;5073785;28;20444;-58
2023/04/15 14:18:20;;;;;;;11.77;10.77;;;;;;;;;;5073957;28;20534;-58
2023/04/15 14:20:47;;;;;;;11.63;10.50;;;;;;;;;;5073760;28;20935;-58